createdAt,value
2017-03-02T00:08:52.572Z,7.04
2017-03-02T00:18:52.459Z,6.91
2017-03-02T00:28:52.377Z,6.99
2017-03-02T00:38:52.461Z,7.07
2017-03-02T00:48:52.406Z,7.07
2017-03-02T00:58:52.408Z,6.97
2017-03-02T01:08:52.635Z,7.04
2017-03-02T01:18:52.509Z,7.09
2017-03-02T01:28:52.506Z,7.02
2017-03-02T01:38:52.407Z,7.09
2017-03-02T01:48:52.513Z,7.13
2017-03-02T01:58:52.471Z,7.17
2017-03-02T02:08:52.397Z,7.24
2017-03-02T02:18:52.480Z,7.41
2017-03-02T02:28:52.466Z,7.59
2017-03-02T02:38:52.511Z,7.72
2017-03-02T02:48:52.467Z,7.71
2017-03-02T02:58:52.540Z,7.75
2017-03-02T03:08:52.478Z,7.71
2017-03-02T03:18:52.552Z,7.66
2017-03-02T03:28:52.496Z,7.69
2017-03-02T03:38:52.551Z,7.49
2017-03-02T03:48:52.507Z,7.44
2017-03-02T03:58:52.568Z,7.42
2017-03-02T04:08:52.608Z,7.53
2017-03-02T04:18:52.586Z,7.49
2017-03-02T04:28:52.593Z,7.38
2017-03-02T04:38:52.530Z,7.2
2017-03-02T04:48:52.600Z,7.16
2017-03-02T04:58:52.559Z,7.34
2017-03-02T05:08:52.596Z,7.24
2017-03-02T05:18:52.578Z,7.52
2017-03-02T05:28:52.650Z,7.31
2017-03-02T05:38:52.599Z,7.2
2017-03-02T05:48:52.669Z,7.19
2017-03-02T05:58:52.595Z,7.02
2017-03-02T06:08:52.684Z,7.19
2017-03-02T06:18:52.649Z,7.12
2017-03-02T06:28:52.734Z,7.05
2017-03-02T06:38:52.643Z,7.05
2017-03-02T06:48:52.627Z,7.05
2017-03-02T06:58:52.708Z,7.13
2017-03-02T07:08:52.649Z,7.26
2017-03-02T07:18:58.500Z,7.04
2017-03-02T07:28:52.678Z,7.42
2017-03-02T07:38:52.767Z,7.94
2017-03-02T07:48:52.732Z,7.79
2017-03-02T07:58:52.792Z,7.01
2017-03-02T08:08:52.679Z,5.93
2017-03-02T08:18:52.699Z,5.57
2017-03-02T08:28:52.729Z,5.73
2017-03-02T08:38:52.692Z,5.64
2017-03-02T08:48:52.710Z,5.63
2017-03-02T08:58:52.713Z,5.64
2017-03-02T09:08:52.750Z,5.78
2017-03-02T09:18:52.737Z,5.73
2017-03-02T09:28:52.817Z,5.85
2017-03-02T09:38:52.779Z,5.82
2017-03-02T09:48:52.755Z,6.35
2017-03-02T09:58:52.768Z,6.59
2017-03-02T10:08:52.816Z,6.65
2017-03-02T10:18:52.780Z,6.76
2017-03-02T10:28:52.773Z,6.56
2017-03-02T10:38:52.798Z,6.54
2017-03-02T10:48:52.807Z,6.77
2017-03-02T10:58:52.829Z,6.9
2017-03-02T11:08:52.834Z,7.41
2017-03-02T11:18:52.857Z,7.85
2017-03-02T11:28:52.841Z,8.2
2017-03-02T11:38:52.857Z,8.44
2017-03-02T11:48:52.856Z,8.32
2017-03-02T11:58:53.121Z,8.69
2017-03-02T12:08:52.864Z,9.31
2017-03-02T12:18:52.903Z,9.12
2017-03-02T12:28:52.912Z,9.24
2017-03-02T12:38:52.909Z,9.06
2017-03-02T12:48:52.899Z,9.24
2017-03-02T12:58:53.094Z,9.57
2017-03-02T13:08:53.060Z,9.64
2017-03-02T13:18:52.961Z,9.61
2017-03-02T13:28:52.930Z,9.7
2017-03-02T13:38:52.944Z,9.48
2017-03-02T13:48:53.182Z,9.83
2017-03-02T13:58:52.996Z,9.78
2017-03-02T14:08:53.054Z,10.22
2017-03-02T14:18:53.735Z,10.01
2017-03-02T14:28:53.100Z,10
2017-03-02T14:38:53.124Z,9.6
2017-03-02T14:48:53.074Z,9.1
2017-03-02T14:58:53.855Z,8.51
2017-03-02T15:08:53.106Z,8.39
2017-03-02T15:18:53.089Z,8.36
2017-03-02T15:28:53.135Z,8.5
2017-03-02T15:38:53.089Z,8.22
2017-03-02T15:48:53.135Z,8.18
2017-03-02T15:58:53.277Z,7.97
2017-03-02T16:08:53.259Z,8.03
2017-03-02T16:18:53.090Z,8.11
2017-03-02T16:28:53.212Z,7.85
2017-03-02T16:38:53.157Z,7.74
2017-03-02T16:48:53.116Z,7.31
2017-03-02T16:58:53.140Z,7.47
2017-03-02T17:08:53.154Z,7.41
2017-03-02T17:18:53.114Z,7.27
2017-03-02T17:28:53.177Z,7.27
2017-03-02T17:38:53.149Z,7.17
2017-03-02T17:48:53.416Z,7.35
2017-03-02T17:58:53.194Z,7.35
2017-03-02T18:08:53.354Z,7.16
2017-03-02T18:18:53.234Z,7.13
2017-03-02T18:28:53.218Z,7.04
2017-03-02T18:38:53.210Z,6.83
2017-03-02T18:48:53.237Z,6.77
2017-03-02T18:58:53.234Z,6.38
2017-03-02T19:08:53.247Z,6.26
2017-03-02T19:18:53.268Z,6.14
2017-03-02T19:28:53.259Z,6.1
2017-03-02T19:38:53.274Z,6.26
2017-03-02T19:48:53.253Z,6.16
2017-03-02T19:58:53.350Z,6.09
2017-03-02T20:08:53.274Z,5.93
2017-03-02T20:18:53.422Z,6.06
2017-03-02T20:28:53.288Z,5.82
2017-03-02T20:38:53.338Z,5.7
2017-03-02T20:48:53.406Z,5.74
2017-03-02T20:58:53.331Z,6.11
2017-03-02T21:08:53.323Z,6.3
2017-03-02T21:18:53.352Z,6.44
2017-03-02T21:28:53.345Z,6.53
2017-03-02T21:38:53.387Z,6.51
2017-03-02T21:48:53.358Z,6.56
2017-03-02T21:58:53.723Z,6.63
2017-03-02T22:08:53.644Z,6.56
2017-03-02T22:18:53.803Z,6.36
2017-03-02T22:28:53.593Z,6.01
2017-03-02T22:38:53.839Z,5.71
2017-03-02T22:48:53.559Z,5.52
2017-03-02T22:58:53.586Z,5.32
2017-03-02T23:08:53.482Z,5.09
2017-03-02T23:18:53.641Z,5.3
2017-03-02T23:28:53.503Z,5.23
2017-03-02T23:38:53.569Z,5.27
2017-03-02T23:48:53.556Z,5.13
2017-03-02T23:58:53.518Z,5.23
